Starkweather, North Dakota
Current Conditions -  °F | °C
As of 2:35 AM on Saturday 25 Oct 2014 (Local Time) from K9D7 Reporting Station
Clear Clear  
Wind Chill: 31°   Ceiling: Unl
Heat Index: 37°   Visibility: 10mi
Dew Point: 32°   Wind: 9mph
Humidity: 81%   Direction: 270°W
Pressure: 29.99"   Gusts: NA
Location:  48.45°N, 98.88°W
Report Text: K9D7 250735Z AUTO 27008KT 10SM CLR 03/00 A2999 RMK AO2
Loading
Personal Weather Stations






























Interactive Weather Map
Tropical Storm Tracking
New forecast layout! Learn more

10-Day Weather Forecast

Advertisements
Track Severe Weather on mobile